createdAt,value
2017-11-17T05:10:50.857Z,0
2017-11-17T05:11:52.494Z,0
2017-11-17T05:13:44.303Z,0
2017-11-17T05:14:46.004Z,0
2017-11-17T05:16:37.879Z,0
2017-11-17T05:17:39.562Z,0
2017-11-17T05:19:31.370Z,0
2017-11-17T05:20:33.012Z,0
2017-11-17T05:22:24.833Z,0
2017-11-17T05:23:26.504Z,0
2017-11-17T05:25:18.422Z,0
2017-11-17T05:26:20.096Z,0
2017-11-17T05:28:11.954Z,0
2017-11-17T05:29:13.607Z,0
2017-11-17T05:31:05.416Z,0
2017-11-17T05:32:07.074Z,0
2017-11-17T05:33:08.731Z,0
2017-11-17T05:34:10.380Z,0
2017-11-17T05:35:12.028Z,0
2017-11-17T05:36:13.686Z,0
2017-11-17T05:37:15.330Z,0
2017-11-17T05:38:17.001Z,0
2017-11-17T05:39:18.646Z,0
2017-11-17T05:40:20.299Z,0
2017-11-17T05:41:21.990Z,0
2017-11-17T05:42:23.628Z,0
2017-11-17T05:43:25.287Z,0
2017-11-17T05:44:26.935Z,0
2017-11-17T05:45:28.582Z,0
2017-11-17T05:46:30.252Z,0
2017-11-17T05:47:31.893Z,0
2017-11-17T05:48:33.562Z,0
2017-11-17T05:49:35.223Z,0
2017-11-17T05:50:36.874Z,0
2017-11-17T05:51:38.532Z,0
2017-11-17T05:52:40.185Z,0
2017-11-17T05:53:41.942Z,0
2017-11-17T05:54:43.650Z,0
2017-11-17T05:55:45.294Z,0
2017-11-17T05:56:46.957Z,0
2017-11-17T05:57:48.624Z,0
2017-11-17T05:58:50.299Z,0
2017-11-17T05:59:51.971Z,0
2017-11-17T06:00:53.622Z,0
2017-11-17T06:01:55.271Z,0
2017-11-17T06:02:56.959Z,0
2017-11-17T06:03:58.602Z,0
2017-11-17T06:05:00.257Z,0
2017-11-17T06:06:01.908Z,0
2017-11-17T06:07:03.568Z,0
2017-11-17T06:08:05.221Z,0
2017-11-17T06:09:06.890Z,0
2017-11-17T06:10:08.523Z,0
2017-11-17T06:11:10.208Z,0
2017-11-17T06:12:11.854Z,0
2017-11-17T06:13:13.507Z,0
2017-11-17T06:14:15.222Z,4
2017-11-17T06:15:16.881Z,4
2017-11-17T06:16:18.523Z,4
2017-11-17T06:17:20.322Z,4
2017-11-17T06:18:21.969Z,8
2017-11-17T06:19:23.624Z,4
2017-11-17T06:20:25.273Z,8
2017-11-17T06:21:26.931Z,8
2017-11-17T06:22:28.581Z,8
2017-11-17T06:23:30.239Z,16
2017-11-17T06:24:31.914Z,16
2017-11-17T06:25:33.568Z,20
2017-11-17T06:26:35.230Z,20
2017-11-17T06:27:36.884Z,24
2017-11-17T06:28:38.545Z,28
2017-11-17T06:29:40.266Z,32
2017-11-17T06:30:41.979Z,40
2017-11-17T06:31:43.628Z,44
2017-11-17T06:32:45.282Z,48
2017-11-17T06:33:46.967Z,48
2017-11-17T06:34:48.620Z,56
2017-11-17T06:35:50.625Z,68
2017-11-17T06:36:52.283Z,88
2017-11-17T06:37:54.021Z,112
2017-11-17T06:38:55.732Z,136
2017-11-17T06:39:57.394Z,152
2017-11-17T06:40:59.061Z,160
2017-11-17T06:42:00.714Z,164
2017-11-17T06:43:02.371Z,168
2017-11-17T06:44:04.078Z,192
2017-11-17T06:45:05.733Z,232
2017-11-17T06:46:07.379Z,276
2017-11-17T06:47:09.034Z,284
2017-11-17T06:48:10.699Z,264
2017-11-17T06:49:12.358Z,248
2017-11-17T06:50:14.038Z,268
2017-11-17T06:51:15.731Z,300
2017-11-17T06:52:17.391Z,332
2017-11-17T06:53:19.041Z,336
2017-11-17T06:54:20.698Z,324
2017-11-17T06:55:22.355Z,324
2017-11-17T06:56:24.002Z,328
2017-11-17T06:57:25.661Z,348
2017-11-17T06:58:27.312Z,388
2017-11-17T06:59:28.965Z,420
2017-11-17T07:00:30.685Z,436
2017-11-17T07:01:32.330Z,440
2017-11-17T07:02:34.014Z,428
2017-11-17T07:03:35.668Z,428
2017-11-17T07:04:37.334Z,452
2017-11-17T07:05:39.023Z,484
2017-11-17T07:06:40.670Z,516
2017-11-17T07:07:42.330Z,548
2017-11-17T07:08:44.022Z,564
2017-11-17T07:09:45.696Z,568
2017-11-17T07:10:47.346Z,568
2017-11-17T07:11:49.033Z,596
2017-11-17T07:12:50.683Z,644
2017-11-17T07:13:52.335Z,680
2017-11-17T07:14:54.036Z,688
2017-11-17T07:15:55.693Z,664
2017-11-17T07:16:57.404Z,604
2017-11-17T07:17:59.147Z,536
2017-11-17T07:19:00.850Z,496
2017-11-17T07:20:02.550Z,492
2017-11-17T07:21:04.207Z,548
2017-11-17T07:22:05.858Z,616
2017-11-17T07:23:07.517Z,628
2017-11-17T07:24:09.221Z,560
2017-11-17T07:25:10.950Z,512
2017-11-17T07:26:12.625Z,524
2017-11-17T07:27:14.438Z,580
2017-11-17T07:28:16.094Z,656
2017-11-17T07:29:17.787Z,760
2017-11-17T07:30:19.446Z,876
2017-11-17T07:31:21.105Z,1008
2017-11-17T07:32:22.866Z,1128
2017-11-17T07:33:24.635Z,1220
2017-11-17T07:34:26.298Z,1272
2017-11-17T07:35:27.953Z,1324
2017-11-17T07:36:29.609Z,1480
2017-11-17T07:37:31.259Z,1728
2017-11-17T07:38:32.915Z,2044
2017-11-17T07:39:34.572Z,2388
2017-11-17T07:40:36.229Z,2544
2017-11-17T07:41:37.875Z,2536
2017-11-17T07:42:39.545Z,2340
2017-11-17T07:43:41.213Z,2044
2017-11-17T07:44:42.868Z,1788
2017-11-17T07:45:44.581Z,1664
2017-11-17T07:46:46.240Z,1604
2017-11-17T07:47:47.899Z,1564
2017-11-17T07:48:49.743Z,1532
2017-11-17T07:49:51.409Z,1524
2017-11-17T07:50:53.065Z,1564
2017-11-17T07:51:54.730Z,1620
2017-11-17T07:52:56.456Z,1660
2017-11-17T07:53:58.111Z,1724
2017-11-17T07:54:59.766Z,1832
2017-11-17T07:56:01.425Z,2012
2017-11-17T07:57:03.483Z,2256
2017-11-17T07:58:05.180Z,2592
2017-11-17T07:59:06.917Z,2896
2017-11-17T08:00:08.578Z,3132
2017-11-17T08:01:10.229Z,3216
2017-11-17T08:02:11.888Z,3328
2017-11-17T08:03:13.552Z,3472
2017-11-17T08:04:15.218Z,3612
2017-11-17T08:05:16.868Z,3616
2017-11-17T08:06:18.518Z,3612
2017-11-17T08:07:20.183Z,3796
2017-11-17T08:08:21.841Z,4164
2017-11-17T08:09:23.517Z,4692
2017-11-17T08:10:25.166Z,5276
2017-11-17T08:11:26.857Z,5776
2017-11-17T08:12:28.509Z,6220
2017-11-17T08:13:30.170Z,6424
2017-11-17T08:14:31.820Z,6276
2017-11-17T08:15:33.513Z,6172
2017-11-17T08:16:35.152Z,6348
2017-11-17T08:17:36.812Z,6512
2017-11-17T08:18:38.471Z,6756
2017-11-17T08:19:40.136Z,6988
2017-11-17T08:20:41.799Z,7160
2017-11-17T08:21:43.454Z,7120
2017-11-17T08:22:45.108Z,6668
2017-11-17T08:23:46.770Z,6068
2017-11-17T08:24:48.420Z,5692
2017-11-17T08:25:50.074Z,5428
2017-11-17T08:26:51.736Z,5428
2017-11-17T08:27:53.389Z,5660
2017-11-17T08:28:55.090Z,5868
2017-11-17T08:29:56.750Z,6156
2017-11-17T08:30:58.432Z,6460
2017-11-17T08:32:00.124Z,6604
2017-11-17T08:33:01.787Z,6612
2017-11-17T08:34:03.452Z,6408
2017-11-17T08:35:05.116Z,6024
2017-11-17T08:36:06.768Z,5476
2017-11-17T08:37:08.446Z,4844
2017-11-17T08:38:10.100Z,4280
2017-11-17T08:39:11.767Z,3908
2017-11-17T08:40:13.472Z,3656
2017-11-17T08:41:15.123Z,3568
2017-11-17T08:42:16.779Z,3688
2017-11-17T08:43:18.436Z,3860
2017-11-17T08:44:20.267Z,4060
2017-11-17T08:45:21.801Z,4208
2017-11-17T08:46:23.460Z,4288
2017-11-17T08:47:25.125Z,4328
2017-11-17T08:48:26.783Z,4244
2017-11-17T08:49:28.448Z,4052
2017-11-17T08:50:30.118Z,3892
2017-11-17T08:51:31.769Z,3952
2017-11-17T08:52:33.424Z,4292
2017-11-17T08:53:35.107Z,4804
2017-11-17T08:54:36.754Z,5068
2017-11-17T08:55:38.414Z,5060
2017-11-17T08:56:40.074Z,4980
2017-11-17T08:57:41.727Z,4840
2017-11-17T08:58:43.422Z,4680
2017-11-17T08:59:45.104Z,4708
2017-11-17T09:00:46.771Z,4888
2017-11-17T09:01:48.422Z,5244
2017-11-17T09:02:50.084Z,5764
2017-11-17T09:03:51.787Z,6116
2017-11-17T09:04:53.441Z,6484
2017-11-17T09:05:55.101Z,7128
2017-11-17T09:06:56.791Z,7748
2017-11-17T09:07:58.452Z,8596
2017-11-17T09:09:00.124Z,9300
2017-11-17T09:10:01.797Z,9512
2017-11-17T09:11:03.464Z,9528
2017-11-17T09:12:05.123Z,9284
2017-11-17T09:13:06.786Z,8796
2017-11-17T09:14:08.428Z,8532
2017-11-17T09:15:10.110Z,8832
2017-11-17T09:16:11.781Z,8976
2017-11-17T09:17:13.444Z,8504
2017-11-17T09:18:15.138Z,7720
2017-11-17T09:19:16.874Z,7244
2017-11-17T09:20:18.597Z,7116
2017-11-17T09:21:20.257Z,7500
2017-11-17T09:22:21.925Z,8312
2017-11-17T09:23:23.600Z,9028
2017-11-17T09:24:25.265Z,9996
2017-11-17T09:25:26.932Z,11020
2017-11-17T09:26:28.601Z,11688
2017-11-17T09:27:30.260Z,11688
2017-11-17T09:28:31.917Z,12224
2017-11-17T09:29:33.581Z,13136
2017-11-17T09:30:35.304Z,13916
2017-11-17T09:31:36.950Z,14480
2017-11-17T09:32:38.640Z,15076
2017-11-17T09:33:40.293Z,15876
2017-11-17T09:34:41.948Z,16956
2017-11-17T09:35:43.634Z,18112
2017-11-17T09:36:45.301Z,17760
2017-11-17T09:37:46.961Z,14940
2017-11-17T09:38:48.639Z,12228
2017-11-17T09:39:50.309Z,11144
2017-11-17T09:40:51.956Z,12372
2017-11-17T09:41:53.626Z,14504
2017-11-17T09:42:55.290Z,16440
2017-11-17T09:43:56.949Z,16768
2017-11-17T09:44:58.621Z,16092
2017-11-17T09:46:00.300Z,15860
2017-11-17T09:47:01.952Z,14384
2017-11-17T09:48:03.616Z,11792
2017-11-17T09:49:05.275Z,9508
2017-11-17T09:50:06.935Z,8136
2017-11-17T09:51:08.604Z,7272
2017-11-17T09:52:10.262Z,6772
2017-11-17T09:53:11.918Z,6808
2017-11-17T09:54:13.574Z,6888
2017-11-17T09:55:15.243Z,7260
2017-11-17T09:56:16.901Z,7708
2017-11-17T09:57:18.571Z,8268
2017-11-17T09:58:20.231Z,8900
2017-11-17T09:59:23.433Z,9088
2017-11-17T10:00:25.097Z,9524
2017-11-17T10:01:26.773Z,10188
2017-11-17T10:02:28.458Z,10792
2017-11-17T10:03:30.103Z,11012
2017-11-17T10:04:31.780Z,11540
2017-11-17T10:05:33.435Z,12060
2017-11-17T10:06:35.092Z,12400
2017-11-17T10:07:36.756Z,12376
2017-11-17T10:08:38.420Z,12060
2017-11-17T10:09:40.080Z,11792
2017-11-17T10:10:41.754Z,11800
2017-11-17T10:11:43.412Z,12004
2017-11-17T10:12:45.073Z,12264
2017-11-17T10:13:46.728Z,12472
2017-11-17T10:14:48.391Z,12852
2017-11-17T10:15:50.063Z,13212
2017-11-17T10:16:51.723Z,13544
2017-11-17T10:17:53.371Z,13720
2017-11-17T10:18:55.025Z,13760
2017-11-17T10:19:56.687Z,13804
2017-11-17T10:20:58.347Z,13896
2017-11-17T10:22:00.001Z,14116
2017-11-17T10:23:01.654Z,14144
2017-11-17T10:24:03.338Z,13888
2017-11-17T10:25:05.004Z,13448
2017-11-17T10:26:06.654Z,13096
2017-11-17T10:27:08.310Z,12852
2017-11-17T10:28:09.971Z,12956
2017-11-17T10:29:11.688Z,13000
2017-11-17T10:30:13.346Z,13048
2017-11-17T10:31:15.027Z,12980
2017-11-17T10:32:16.695Z,12888
2017-11-17T10:33:18.359Z,12704
2017-11-17T10:34:20.016Z,12528
2017-11-17T10:35:21.674Z,12916
2017-11-17T10:36:23.342Z,13384
2017-11-17T10:37:25.020Z,23456
2017-11-17T10:38:26.681Z,23456
2017-11-17T10:39:28.384Z,21888
2017-11-17T10:40:30.052Z,21728
2017-11-17T10:41:31.716Z,21440
2017-11-17T10:42:33.383Z,18016
2017-11-17T10:43:35.038Z,16400
2017-11-17T10:44:36.701Z,17244
2017-11-17T10:45:38.418Z,21184
2017-11-17T10:46:40.101Z,21376
2017-11-17T10:47:41.801Z,21504
2017-11-17T10:48:43.465Z,22080
2017-11-17T10:49:45.121Z,22720
2017-11-17T10:50:46.787Z,23392
2017-11-17T10:51:48.458Z,23968
2017-11-17T10:52:50.119Z,24896
2017-11-17T10:53:51.792Z,25984
2017-11-17T10:54:53.469Z,27136
2017-11-17T10:55:55.211Z,27552
2017-11-17T10:56:56.850Z,27680
2017-11-17T10:57:58.503Z,28448
2017-11-17T10:59:00.173Z,29952
2017-11-17T11:00:01.837Z,32000
2017-11-17T11:01:03.513Z,31392
2017-11-17T11:02:05.178Z,30720
2017-11-17T11:03:06.873Z,21408
2017-11-17T11:04:08.581Z,38240
2017-11-17T11:05:10.254Z,23008
2017-11-17T11:06:12.100Z,29600
2017-11-17T11:07:13.772Z,33216
2017-11-17T11:08:15.441Z,16144
2017-11-17T11:09:17.109Z,14508
2017-11-17T11:10:18.780Z,13852
2017-11-17T11:11:20.507Z,12876
2017-11-17T11:12:22.162Z,11708
2017-11-17T11:13:23.832Z,11108
2017-11-17T11:14:28.311Z,11484
2017-11-17T11:15:30.020Z,12024
2017-11-17T11:16:31.692Z,12404
2017-11-17T11:17:33.357Z,12512
2017-11-17T11:18:35.026Z,12012
2017-11-17T11:19:36.692Z,11872
2017-11-17T11:20:38.355Z,11868
2017-11-17T11:21:40.025Z,12212
2017-11-17T11:22:41.683Z,12596
2017-11-17T11:23:43.352Z,13508
2017-11-17T11:24:45.026Z,14416
2017-11-17T11:25:46.690Z,14952
2017-11-17T11:26:48.354Z,15500
2017-11-17T11:27:50.026Z,15432
2017-11-17T11:28:51.687Z,14848
2017-11-17T11:29:53.343Z,14228
2017-11-17T11:30:55.016Z,13436
2017-11-17T11:31:56.679Z,12476
2017-11-17T11:32:58.399Z,11896
2017-11-17T11:34:00.061Z,11632
2017-11-17T11:35:01.734Z,11912
2017-11-17T11:36:03.407Z,13084
2017-11-17T11:37:05.064Z,49248
2017-11-17T11:38:06.729Z,55584
2017-11-17T11:39:08.395Z,56128
2017-11-17T11:40:10.066Z,56608
2017-11-17T11:41:11.724Z,42944
2017-11-17T11:42:13.393Z,43872
2017-11-17T11:43:15.123Z,25088
2017-11-17T11:44:16.787Z,15704
2017-11-17T11:45:18.449Z,15644
2017-11-17T11:46:20.122Z,20384
2017-11-17T11:47:21.788Z,13752
2017-11-17T11:48:23.449Z,12488
2017-11-17T11:49:25.117Z,13012
2017-11-17T11:50:26.780Z,13936
2017-11-17T11:51:28.455Z,11176
2017-11-17T11:52:30.105Z,12600
2017-11-17T11:53:31.758Z,18144
2017-11-17T11:54:33.424Z,31936
2017-11-17T11:55:35.083Z,73152
2017-11-17T11:56:36.750Z,89536
2017-11-17T11:57:38.422Z,35328
2017-11-17T11:58:40.092Z,110176
2017-11-17T11:59:41.749Z,18048
2017-11-17T12:00:43.429Z,14644
2017-11-17T12:01:45.112Z,79296
2017-11-17T12:02:46.787Z,73504
2017-11-17T12:03:48.494Z,35840
2017-11-17T12:04:50.158Z,39200
2017-11-17T12:05:51.823Z,17168
2017-11-17T12:06:53.480Z,32256
2017-11-17T12:07:55.141Z,13864
2017-11-17T12:08:56.806Z,20704
2017-11-17T12:09:58.465Z,37632
2017-11-17T12:11:00.143Z,15212
2017-11-17T12:12:01.852Z,21920
2017-11-17T12:13:03.652Z,16900
2017-11-17T12:14:05.157Z,16092
2017-11-17T12:15:06.827Z,16836
2017-11-17T12:16:08.692Z,17664
2017-11-17T12:17:10.356Z,17292
2017-11-17T12:18:12.020Z,16612
2017-11-17T12:19:13.680Z,15836
2017-11-17T12:20:15.344Z,14384
2017-11-17T12:21:17.012Z,12796
2017-11-17T12:22:18.673Z,11884
2017-11-17T12:23:20.349Z,11688
2017-11-17T12:24:22.048Z,11940
2017-11-17T12:25:23.711Z,16500
2017-11-17T12:26:25.382Z,18848
2017-11-17T12:27:27.058Z,15464
2017-11-17T12:28:28.762Z,14312
2017-11-17T12:29:30.469Z,18528
2017-11-17T12:30:32.176Z,15796
2017-11-17T12:31:33.840Z,14184
2017-11-17T12:32:35.497Z,16200
2017-11-17T12:33:37.162Z,16400
2017-11-17T12:34:39.131Z,16948
2017-11-17T12:35:40.787Z,17140
2017-11-17T12:36:42.487Z,19392
2017-11-17T12:37:44.153Z,14988
2017-11-17T12:38:45.874Z,13808
2017-11-17T12:39:47.531Z,13648
2017-11-17T12:40:49.199Z,17760
2017-11-17T12:41:53.712Z,19200
2017-11-17T12:42:55.394Z,15696
2017-11-17T12:43:57.110Z,15544
2017-11-17T12:44:58.786Z,16472
2017-11-17T12:46:00.433Z,16356
2017-11-17T12:47:02.123Z,15540
2017-11-17T12:48:03.786Z,14816
2017-11-17T12:49:05.474Z,14160
2017-11-17T12:50:07.133Z,13456
2017-11-17T12:51:08.822Z,13012
2017-11-17T12:52:10.528Z,12784
2017-11-17T12:53:12.198Z,12692
2017-11-17T12:54:13.877Z,12840
2017-11-17T12:55:15.549Z,13556
2017-11-17T12:56:17.205Z,13028
2017-11-17T12:57:18.876Z,12940
2017-11-17T12:58:20.538Z,13352
2017-11-17T12:59:22.202Z,12528
2017-11-17T13:00:24.422Z,12220
2017-11-17T13:01:26.095Z,12292
2017-11-17T13:02:27.788Z,11824
2017-11-17T13:03:29.452Z,11260
2017-11-17T13:04:31.117Z,10916
2017-11-17T13:05:32.767Z,10600
2017-11-17T13:06:34.436Z,10332
2017-11-17T13:07:36.103Z,9792
2017-11-17T13:08:37.771Z,10088
2017-11-17T13:09:39.431Z,10932
2017-11-17T13:10:41.104Z,10472
2017-11-17T13:11:42.780Z,10772
2017-11-17T13:12:44.450Z,10204
2017-11-17T13:13:46.121Z,10100
2017-11-17T13:14:47.797Z,9224
2017-11-17T13:15:49.457Z,9348
2017-11-17T13:16:51.149Z,9844
2017-11-17T13:17:52.811Z,9436
2017-11-17T13:18:54.498Z,10416
2017-11-17T13:19:56.251Z,11724
2017-11-17T13:20:57.926Z,11068
2017-11-17T13:21:59.597Z,12100
2017-11-17T13:23:01.257Z,10192
2017-11-17T13:24:02.911Z,9756
2017-11-17T13:25:04.584Z,9540
2017-11-17T13:26:06.246Z,9704
2017-11-17T13:27:07.902Z,9160
2017-11-17T13:28:09.564Z,9564
2017-11-17T13:29:11.256Z,9684
2017-11-17T13:30:12.914Z,9044
2017-11-17T13:31:14.628Z,8752
2017-11-17T13:32:16.294Z,8792
2017-11-17T13:33:17.988Z,9044
2017-11-17T13:34:19.652Z,8768
2017-11-17T13:35:21.311Z,8760
2017-11-17T13:36:22.970Z,8868
2017-11-17T13:37:24.626Z,8792
2017-11-17T13:38:26.302Z,8696
2017-11-17T13:39:28.004Z,8904
2017-11-17T13:40:29.690Z,9196
2017-11-17T13:41:31.339Z,9020
2017-11-17T13:42:33.002Z,8860
2017-11-17T13:43:34.668Z,8740
2017-11-17T13:44:36.353Z,8968
2017-11-17T13:45:38.096Z,9328
2017-11-17T13:46:39.779Z,9868
2017-11-17T13:47:41.460Z,10168
2017-11-17T13:48:43.150Z,10400
2017-11-17T13:49:44.809Z,10616
2017-11-17T13:50:46.485Z,10496
2017-11-17T13:51:48.516Z,10216
2017-11-17T13:52:50.468Z,9916
2017-11-17T13:53:52.135Z,9440
2017-11-17T13:54:53.799Z,8812
2017-11-17T13:55:55.467Z,8004
2017-11-17T13:56:57.136Z,7508
2017-11-17T13:57:58.798Z,7344
2017-11-17T13:59:00.460Z,7312
2017-11-17T14:00:02.137Z,7460
2017-11-17T14:01:03.804Z,7836
2017-11-17T14:02:05.498Z,7992
2017-11-17T14:03:07.197Z,7984
2017-11-17T14:04:08.864Z,7800
2017-11-17T14:05:10.538Z,7600
2017-11-17T14:06:12.256Z,7428
2017-11-17T14:07:13.987Z,7180
2017-11-17T14:08:15.649Z,6852
2017-11-17T14:09:17.473Z,6580
2017-11-17T14:10:19.228Z,6396
2017-11-17T14:11:20.903Z,6292
2017-11-17T14:12:22.631Z,6356
2017-11-17T14:13:24.299Z,6464
2017-11-17T14:14:25.971Z,6676
2017-11-17T14:15:27.624Z,6832
2017-11-17T14:16:29.287Z,6804
2017-11-17T14:17:30.958Z,6800
2017-11-17T14:18:32.632Z,6728
2017-11-17T14:19:34.300Z,6632
2017-11-17T14:20:35.971Z,6416
2017-11-17T14:21:37.637Z,6160
2017-11-17T14:22:39.300Z,5828
2017-11-17T14:23:40.967Z,5524
2017-11-17T14:24:42.815Z,5168
2017-11-17T14:25:44.358Z,4676
2017-11-17T14:26:46.046Z,4004
2017-11-17T14:27:47.684Z,3520
2017-11-17T14:28:49.345Z,3352
2017-11-17T14:29:51.005Z,3340
2017-11-17T14:30:52.677Z,3284
2017-11-17T14:31:54.545Z,2972
2017-11-17T14:32:56.202Z,2724
2017-11-17T14:33:58.083Z,2664
2017-11-17T14:34:59.774Z,2692
2017-11-17T14:36:01.580Z,2816
2017-11-17T14:37:03.523Z,3032
2017-11-17T14:38:05.426Z,3220
2017-11-17T14:39:07.087Z,3348
2017-11-17T14:40:08.740Z,3352
2017-11-17T14:41:10.418Z,3088
2017-11-17T14:42:12.266Z,2772
2017-11-17T14:43:13.937Z,2580
2017-11-17T14:44:15.585Z,2564
2017-11-17T14:45:17.264Z,2432
2017-11-17T14:46:19.068Z,2424
2017-11-17T14:47:20.823Z,2456
2017-11-17T14:48:22.883Z,2500
2017-11-17T14:49:24.553Z,2464
2017-11-17T14:50:26.205Z,2308
2017-11-17T14:51:27.886Z,2068
2017-11-17T14:52:29.755Z,1904
2017-11-17T14:53:31.481Z,1816
2017-11-17T14:54:33.352Z,1812
2017-11-17T14:55:40.031Z,1848
2017-11-17T14:56:41.699Z,1880
2017-11-17T14:57:43.571Z,1868
2017-11-17T14:58:45.617Z,1816
2017-11-17T14:59:48.160Z,1756
2017-11-17T15:00:49.859Z,1728
2017-11-17T15:01:51.532Z,1712
2017-11-17T15:02:53.197Z,1688
2017-11-17T15:03:54.876Z,1652
2017-11-17T15:04:56.585Z,1612
2017-11-17T15:05:58.303Z,1580
2017-11-17T15:07:00.197Z,1540
2017-11-17T15:08:02.087Z,1508
2017-11-17T15:09:03.852Z,1488
2017-11-17T15:10:05.577Z,1456
2017-11-17T15:11:07.228Z,1416
2017-11-17T15:12:08.901Z,1364
2017-11-17T15:13:10.547Z,1304
2017-11-17T15:14:12.226Z,1248
2017-11-17T15:15:13.893Z,1204
2017-11-17T15:16:15.537Z,1164
2017-11-17T15:17:17.210Z,1120
2017-11-17T15:18:18.874Z,1076
2017-11-17T15:19:20.521Z,1036
2017-11-17T15:20:22.200Z,992
2017-11-17T15:21:23.868Z,952
2017-11-17T15:22:25.507Z,912
2017-11-17T15:23:27.289Z,872
2017-11-17T15:24:28.948Z,828
2017-11-17T15:25:30.597Z,784
2017-11-17T15:26:33.499Z,744
2017-11-17T15:27:35.171Z,700
2017-11-17T15:28:36.851Z,660
2017-11-17T15:29:38.510Z,620
2017-11-17T15:30:40.330Z,580
2017-11-17T15:31:42.178Z,540
2017-11-17T15:32:43.883Z,504
2017-11-17T15:33:45.559Z,468
2017-11-17T15:34:47.280Z,432
2017-11-17T15:35:48.937Z,400
2017-11-17T15:36:50.658Z,364
2017-11-17T15:37:52.313Z,336
2017-11-17T15:38:53.965Z,304
2017-11-17T15:39:55.619Z,276
2017-11-17T15:40:57.284Z,252
2017-11-17T15:41:58.934Z,224
2017-11-17T15:43:00.621Z,200
2017-11-17T15:44:02.280Z,180
2017-11-17T15:45:04.039Z,156
2017-11-17T15:46:05.678Z,140
2017-11-17T15:47:07.361Z,124
2017-11-17T15:48:09.011Z,108
2017-11-17T15:49:10.669Z,96
2017-11-17T15:50:12.322Z,84
2017-11-17T15:51:13.975Z,68
2017-11-17T15:52:15.628Z,60
2017-11-17T15:53:17.274Z,52
2017-11-17T15:54:19.494Z,44
2017-11-17T15:55:21.143Z,36
2017-11-17T15:56:23.837Z,32
2017-11-17T15:57:25.472Z,28
2017-11-17T15:58:27.230Z,24
2017-11-17T15:59:28.977Z,16
2017-11-17T16:00:30.627Z,12
2017-11-17T16:01:32.277Z,12
2017-11-17T16:02:33.928Z,8
2017-11-17T16:03:41.280Z,8
2017-11-17T16:04:42.949Z,8
2017-11-17T16:05:44.599Z,4
2017-11-17T16:06:46.275Z,8
2017-11-17T16:07:47.911Z,4
2017-11-17T16:08:49.574Z,4
2017-11-17T16:09:51.227Z,4
2017-11-17T16:10:52.867Z,4
2017-11-17T16:11:54.525Z,4
2017-11-17T16:12:56.171Z,0
2017-11-17T16:13:57.818Z,0
2017-11-17T16:14:59.457Z,0
2017-11-17T16:16:01.108Z,0
2017-11-17T16:17:02.787Z,0
2017-11-17T16:18:04.431Z,0
2017-11-17T16:19:06.273Z,0
2017-11-17T16:20:07.927Z,0
2017-11-17T16:21:09.583Z,0
2017-11-17T16:22:11.245Z,0
2017-11-17T16:23:12.898Z,0
2017-11-17T16:24:14.540Z,0
2017-11-17T16:25:16.211Z,0
2017-11-17T16:26:17.869Z,0
2017-11-17T16:27:19.619Z,0
2017-11-17T16:28:21.277Z,0
2017-11-17T16:29:22.926Z,0
2017-11-17T16:30:24.567Z,0
2017-11-17T16:31:26.304Z,0
2017-11-17T16:32:27.948Z,0
2017-11-17T16:33:29.613Z,0
2017-11-17T16:34:31.273Z,0
2017-11-17T16:35:32.906Z,0
2017-11-17T16:36:34.607Z,0
2017-11-17T16:37:36.342Z,0
2017-11-17T16:38:38.008Z,0
2017-11-17T16:39:39.652Z,0
2017-11-17T16:40:41.310Z,0
2017-11-17T16:41:42.957Z,0
2017-11-17T16:42:44.598Z,0
2017-11-17T16:43:46.242Z,0
2017-11-17T16:44:48.195Z,0
2017-11-17T16:45:49.867Z,0
2017-11-17T16:46:51.520Z,0
2017-11-17T16:47:53.170Z,0
2017-11-17T16:48:54.828Z,0
2017-11-17T16:49:56.485Z,0
2017-11-17T16:50:58.137Z,0
2017-11-17T16:51:59.809Z,0
2017-11-17T16:53:03.340Z,0
2017-11-17T16:54:04.998Z,0
2017-11-17T16:55:06.720Z,0
2017-11-17T16:56:08.403Z,0
2017-11-17T16:57:10.294Z,0
2017-11-17T16:58:11.973Z,0
2017-11-17T16:59:13.691Z,0
2017-11-17T17:00:15.337Z,0
2017-11-17T17:01:17.011Z,0
2017-11-17T17:02:18.698Z,0
2017-11-17T17:03:20.387Z,0
2017-11-17T17:04:22.102Z,0
2017-11-17T17:05:23.754Z,0
2017-11-17T17:06:25.436Z,0
2017-11-17T17:07:27.247Z,0
2017-11-17T17:08:28.907Z,0
2017-11-17T17:09:30.643Z,0
2017-11-17T17:10:32.288Z,0
2017-11-17T17:11:33.963Z,0
2017-11-17T17:12:35.680Z,0
2017-11-17T17:13:37.349Z,0
2017-11-17T17:14:39.082Z,0
2017-11-17T17:15:40.796Z,0
2017-11-17T17:16:42.462Z,0
2017-11-17T17:17:44.264Z,0
2017-11-17T17:18:45.945Z,0
2017-11-17T17:19:47.712Z,0
2017-11-17T17:20:49.373Z,0
2017-11-17T17:21:51.022Z,0
2017-11-17T17:22:52.738Z,0
2017-11-17T17:23:54.393Z,0
2017-11-17T17:24:56.042Z,0
2017-11-17T17:25:57.692Z,0
2017-11-17T17:26:59.345Z,0
2017-11-17T17:28:00.990Z,0
2017-11-17T17:29:02.636Z,0
2017-11-17T17:30:04.281Z,0
2017-11-17T17:31:05.931Z,0
2017-11-17T17:32:07.582Z,0
2017-11-17T17:33:09.257Z,0
2017-11-17T17:34:10.900Z,0
2017-11-17T17:35:12.550Z,0
2017-11-17T17:36:14.198Z,0
2017-11-17T17:37:15.859Z,0
2017-11-17T17:38:17.504Z,0
2017-11-17T17:39:19.146Z,0
2017-11-17T17:40:20.796Z,0
2017-11-17T17:41:22.456Z,0
2017-11-17T17:42:24.111Z,0
2017-11-17T17:43:25.759Z,0
2017-11-17T17:44:27.458Z,0
2017-11-17T17:45:29.109Z,0
2017-11-17T17:46:30.768Z,0
2017-11-17T17:47:32.521Z,0
2017-11-17T17:48:34.167Z,0
2017-11-17T17:49:35.896Z,0
2017-11-17T17:50:37.576Z,0
2017-11-17T17:51:39.259Z,0
2017-11-17T17:52:40.964Z,0
2017-11-17T17:53:42.640Z,0
2017-11-17T17:54:44.281Z,0
2017-11-17T17:55:45.993Z,0
2017-11-17T17:56:47.632Z,0
2017-11-17T17:57:49.354Z,0
2017-11-17T17:58:51.031Z,0
2017-11-17T17:59:52.669Z,0
2017-11-17T18:00:54.336Z,0
2017-11-17T18:01:55.990Z,0
2017-11-17T18:02:57.656Z,0
2017-11-17T18:03:59.302Z,0
2017-11-17T18:05:01.007Z,0
2017-11-17T18:06:03.204Z,0
2017-11-17T18:07:04.851Z,0
2017-11-17T18:08:06.499Z,0
2017-11-17T18:09:08.161Z,0
2017-11-17T18:10:09.801Z,0
2017-11-17T18:11:11.468Z,0
2017-11-17T18:12:13.093Z,0
2017-11-17T18:13:14.738Z,0
2017-11-17T18:14:16.392Z,0
2017-11-17T18:15:18.057Z,0
2017-11-17T18:16:19.706Z,0
2017-11-17T18:17:21.367Z,0
2017-11-17T18:18:23.012Z,0
2017-11-17T18:19:24.677Z,0
2017-11-17T18:20:26.376Z,0
2017-11-17T18:21:28.009Z,0
2017-11-17T18:22:29.776Z,0
2017-11-17T18:23:31.494Z,0
2017-11-17T18:24:33.360Z,0
2017-11-17T18:25:35.114Z,0
2017-11-17T18:26:36.719Z,0
2017-11-17T18:27:38.401Z,0
2017-11-17T18:28:40.086Z,0
2017-11-17T18:29:41.812Z,0
2017-11-17T18:30:43.686Z,0
2017-11-17T18:31:45.554Z,0
2017-11-17T18:32:47.383Z,0
2017-11-17T18:33:48.929Z,0
2017-11-17T18:34:50.672Z,0
2017-11-17T18:35:52.330Z,0
2017-11-17T18:36:54.045Z,0
2017-11-17T18:37:55.707Z,0
2017-11-17T18:38:57.408Z,0
2017-11-17T18:39:59.216Z,0
2017-11-17T18:41:01.013Z,0
2017-11-17T18:42:02.689Z,0
2017-11-17T18:43:04.423Z,0
2017-11-17T18:44:06.082Z,0
2017-11-17T18:45:07.839Z,0
2017-11-17T18:46:09.588Z,0
2017-11-17T18:47:11.260Z,0
2017-11-17T18:48:13.083Z,0
2017-11-17T18:49:14.809Z,0
2017-11-17T18:50:16.868Z,0
2017-11-17T18:51:18.506Z,0
2017-11-17T18:52:20.161Z,0
2017-11-17T18:53:21.842Z,0
2017-11-17T18:54:23.658Z,0
2017-11-17T18:55:25.259Z,0
2017-11-17T18:56:27.206Z,0
2017-11-17T18:57:28.945Z,0
2017-11-17T18:58:30.700Z,0
2017-11-17T18:59:32.340Z,0
2017-11-17T19:00:34.034Z,0
2017-11-17T19:01:35.705Z,0
2017-11-17T19:02:37.407Z,0
2017-11-17T19:03:39.057Z,0
2017-11-17T19:04:40.793Z,0
2017-11-17T19:05:42.453Z,0
2017-11-17T19:06:44.135Z,0
2017-11-17T19:07:46.077Z,0
2017-11-17T19:08:47.764Z,0
2017-11-17T19:09:49.428Z,0
2017-11-17T19:10:51.340Z,0
2017-11-17T19:11:53.049Z,0
2017-11-17T19:12:54.710Z,0
2017-11-17T19:13:56.370Z,0
2017-11-17T19:14:58.030Z,0
2017-11-17T19:15:59.727Z,0
2017-11-17T19:17:01.377Z,0
2017-11-17T19:18:03.126Z,0
2017-11-17T19:19:04.781Z,0
2017-11-17T19:20:06.479Z,0
2017-11-17T19:21:08.208Z,0